sensor_id;sensor_type;location;lat;lon;timestamp;temperature;humidity
46890;DHT22;32625;51.080;16.970;2023-07-20T00:01:56;17.90;99.90
46890;DHT22;32625;51.080;16.970;2023-07-20T00:04:23;17.90;99.90
46890;DHT22;32625;51.080;16.970;2023-07-20T00:06:50;17.90;99.90
46890;DHT22;32625;51.080;16.970;2023-07-20T00:09:17;17.80;99.90
46890;DHT22;32625;51.080;16.970;2023-07-20T00:11:49;17.80;99.90
46890;DHT22;32625;51.080;16.970;2023-07-20T00:14:20;17.80;99.90
46890;DHT22;32625;51.080;16.970;2023-07-20T00:16:49;17.70;99.90
46890;DHT22;32625;51.080;16.970;2023-07-20T00:19:24;17.60;99.90
46890;DHT22;32625;51.080;16.970;2023-07-20T00:21:51;17.60;99.90
46890;DHT22;32625;51.080;16.970;2023-07-20T00:24:19;17.50;99.90
46890;DHT22;32625;51.080;16.970;2023-07-20T00:26:46;17.40;99.90
46890;DHT22;32625;51.080;16.970;2023-07-20T00:29:15;17.40;99.90
46890;DHT22;32625;51.080;16.970;2023-07-20T00:31:42;17.50;99.90
46890;DHT22;32625;51.080;16.970;2023-07-20T00:34:10;17.40;99.90
46890;DHT22;32625;51.080;16.970;2023-07-20T00:36:39;17.40;99.90
46890;DHT22;32625;51.080;16.970;2023-07-20T00:39:07;17.30;99.90
46890;DHT22;32625;51.080;16.970;2023-07-20T00:41:34;17.40;99.90
46890;DHT22;32625;51.080;16.970;2023-07-20T00:44:02;17.40;99.90
46890;DHT22;32625;51.080;16.970;2023-07-20T00:46:29;17.40;99.90
46890;DHT22;32625;51.080;16.970;2023-07-20T00:48:57;17.40;99.90
46890;DHT22;32625;51.080;16.970;2023-07-20T00:51:25;17.40;99.90
46890;DHT22;32625;51.080;16.970;2023-07-20T00:53:53;17.40;99.90
46890;DHT22;32625;51.080;16.970;2023-07-20T00:56:22;17.30;99.90
46890;DHT22;32625;51.080;16.970;2023-07-20T00:58:50;17.30;99.90
46890;DHT22;32625;51.080;16.970;2023-07-20T01:01:17;17.30;99.90
46890;DHT22;32625;51.080;16.970;2023-07-20T01:03:47;17.30;99.90
46890;DHT22;32625;51.080;16.970;2023-07-20T01:14:44;17.40;99.90
46890;DHT22;32625;51.080;16.970;2023-07-20T01:17:11;17.40;99.90
46890;DHT22;32625;51.080;16.970;2023-07-20T01:19:39;17.40;99.90
46890;DHT22;32625;51.080;16.970;2023-07-20T01:31:16;17.20;99.90
46890;DHT22;32625;51.080;16.970;2023-07-20T01:33:44;17.20;99.90
46890;DHT22;32625;51.080;16.970;2023-07-20T01:36:13;17.10;99.90
46890;DHT22;32625;51.080;16.970;2023-07-20T01:38:42;17.10;99.90
46890;DHT22;32625;51.080;16.970;2023-07-20T01:41:10;17.10;99.90
46890;DHT22;32625;51.080;16.970;2023-07-20T01:43:38;17.10;99.90
46890;DHT22;32625;51.080;16.970;2023-07-20T01:46:05;17.00;99.90
46890;DHT22;32625;51.080;16.970;2023-07-20T01:48:32;17.00;99.90
46890;DHT22;32625;51.080;16.970;2023-07-20T01:51:01;16.90;99.90
46890;DHT22;32625;51.080;16.970;2023-07-20T01:53:28;16.90;99.90
46890;DHT22;32625;51.080;16.970;2023-07-20T01:55:56;16.90;99.90
46890;DHT22;32625;51.080;16.970;2023-07-20T01:58:24;16.90;99.90
46890;DHT22;32625;51.080;16.970;2023-07-20T02:00:51;16.90;99.90
46890;DHT22;32625;51.080;16.970;2023-07-20T02:03:19;16.90;99.90
46890;DHT22;32625;51.080;16.970;2023-07-20T02:05:48;16.80;99.90
46890;DHT22;32625;51.080;16.970;2023-07-20T02:08:16;16.80;99.90
46890;DHT22;32625;51.080;16.970;2023-07-20T02:10:46;16.80;99.90
46890;DHT22;32625;51.080;16.970;2023-07-20T02:13:14;16.70;99.90
46890;DHT22;32625;51.080;16.970;2023-07-20T02:15:42;16.70;99.90
46890;DHT22;32625;51.080;16.970;2023-07-20T02:18:10;16.70;99.90
46890;DHT22;32625;51.080;16.970;2023-07-20T02:20:37;16.60;99.90
46890;DHT22;32625;51.080;16.970;2023-07-20T02:23:04;16.60;99.90
46890;DHT22;32625;51.080;16.970;2023-07-20T02:25:32;16.60;99.90
46890;DHT22;32625;51.080;16.970;2023-07-20T02:27:59;16.60;99.90
46890;DHT22;32625;51.080;16.970;2023-07-20T02:30:26;16.50;99.90
46890;DHT22;32625;51.080;16.970;2023-07-20T02:32:54;16.60;99.90
46890;DHT22;32625;51.080;16.970;2023-07-20T02:35:25;16.50;99.90
46890;DHT22;32625;51.080;16.970;2023-07-20T02:37:53;16.50;99.90
46890;DHT22;32625;51.080;16.970;2023-07-20T02:40:20;16.50;99.90
46890;DHT22;32625;51.080;16.970;2023-07-20T02:42:48;16.50;99.90
46890;DHT22;32625;51.080;16.970;2023-07-20T02:45:15;16.50;99.90
46890;DHT22;32625;51.080;16.970;2023-07-20T02:47:43;16.50;99.90
46890;DHT22;32625;51.080;16.970;2023-07-20T02:50:11;16.40;99.90
46890;DHT22;32625;51.080;16.970;2023-07-20T02:52:40;16.40;99.90
46890;DHT22;32625;51.080;16.970;2023-07-20T02:55:08;16.40;99.90
46890;DHT22;32625;51.080;16.970;2023-07-20T02:57:35;16.40;99.90
46890;DHT22;32625;51.080;16.970;2023-07-20T03:00:03;16.30;99.90
46890;DHT22;32625;51.080;16.970;2023-07-20T03:02:32;16.40;99.90
46890;DHT22;32625;51.080;16.970;2023-07-20T03:05:00;16.30;99.90
46890;DHT22;32625;51.080;16.970;2023-07-20T03:07:28;16.30;99.90
46890;DHT22;32625;51.080;16.970;2023-07-20T03:09:55;16.30;99.90
46890;DHT22;32625;51.080;16.970;2023-07-20T03:12:22;16.20;99.90
46890;DHT22;32625;51.080;16.970;2023-07-20T03:14:51;16.20;99.90
46890;DHT22;32625;51.080;16.970;2023-07-20T03:17:18;16.20;99.90
46890;DHT22;32625;51.080;16.970;2023-07-20T03:19:47;16.20;99.90
46890;DHT22;32625;51.080;16.970;2023-07-20T03:22:15;16.20;99.90
46890;DHT22;32625;51.080;16.970;2023-07-20T03:24:42;16.20;99.90
46890;DHT22;32625;51.080;16.970;2023-07-20T03:27:10;16.20;99.90
46890;DHT22;32625;51.080;16.970;2023-07-20T03:29:37;16.20;99.90
46890;DHT22;32625;51.080;16.970;2023-07-20T03:32:05;16.20;99.90
46890;DHT22;32625;51.080;16.970;2023-07-20T03:34:33;16.20;99.90
46890;DHT22;32625;51.080;16.970;2023-07-20T03:37:00;16.20;99.90
46890;DHT22;32625;51.080;16.970;2023-07-20T03:39:28;16.20;99.90
46890;DHT22;32625;51.080;16.970;2023-07-20T03:41:55;16.20;99.90
46890;DHT22;32625;51.080;16.970;2023-07-20T03:44:22;16.20;99.90
46890;DHT22;32625;51.080;16.970;2023-07-20T03:46:49;16.20;99.90
46890;DHT22;32625;51.080;16.970;2023-07-20T03:49:16;16.20;99.90
46890;DHT22;32625;51.080;16.970;2023-07-20T03:51:43;16.10;99.90
46890;DHT22;32625;51.080;16.970;2023-07-20T03:54:10;16.10;99.90
46890;DHT22;32625;51.080;16.970;2023-07-20T03:56:38;16.10;99.90
46890;DHT22;32625;51.080;16.970;2023-07-20T03:59:05;16.10;99.90
46890;DHT22;32625;51.080;16.970;2023-07-20T04:01:32;16.20;99.90
46890;DHT22;32625;51.080;16.970;2023-07-20T04:04:07;16.20;99.90
46890;DHT22;32625;51.080;16.970;2023-07-20T04:06:35;16.30;99.90
46890;DHT22;32625;51.080;16.970;2023-07-20T04:09:03;16.30;99.90
46890;DHT22;32625;51.080;16.970;2023-07-20T04:11:31;16.30;99.90
46890;DHT22;32625;51.080;16.970;2023-07-20T04:13:59;16.40;99.90
46890;DHT22;32625;51.080;16.970;2023-07-20T04:16:26;16.40;99.90
46890;DHT22;32625;51.080;16.970;2023-07-20T04:18:57;16.50;99.90
46890;DHT22;32625;51.080;16.970;2023-07-20T04:21:27;16.50;99.90
46890;DHT22;32625;51.080;16.970;2023-07-20T04:23:55;16.60;99.90
46890;DHT22;32625;51.080;16.970;2023-07-20T04:26:22;16.60;99.90
46890;DHT22;32625;51.080;16.970;2023-07-20T04:28:50;16.60;99.90
46890;DHT22;32625;51.080;16.970;2023-07-20T04:31:32;16.60;99.90
46890;DHT22;32625;51.080;16.970;2023-07-20T04:34:00;16.70;99.90
46890;DHT22;32625;51.080;16.970;2023-07-20T04:36:28;16.70;99.90
46890;DHT22;32625;51.080;16.970;2023-07-20T04:38:56;16.70;99.90
46890;DHT22;32625;51.080;16.970;2023-07-20T04:41:24;16.70;99.90
46890;DHT22;32625;51.080;16.970;2023-07-20T04:43:55;16.70;99.90
46890;DHT22;32625;51.080;16.970;2023-07-20T04:46:27;16.70;99.90
46890;DHT22;32625;51.080;16.970;2023-07-20T04:48:56;16.70;99.90
46890;DHT22;32625;51.080;16.970;2023-07-20T04:51:25;16.70;99.90
46890;DHT22;32625;51.080;16.970;2023-07-20T04:53:54;16.70;99.90
46890;DHT22;32625;51.080;16.970;2023-07-20T04:56:23;16.70;99.90
46890;DHT22;32625;51.080;16.970;2023-07-20T04:58:53;16.80;99.90
46890;DHT22;32625;51.080;16.970;2023-07-20T05:01:20;16.80;99.90
46890;DHT22;32625;51.080;16.970;2023-07-20T05:03:48;16.80;99.90
46890;DHT22;32625;51.080;16.970;2023-07-20T05:06:15;16.80;99.90
46890;DHT22;32625;51.080;16.970;2023-07-20T05:08:44;16.80;99.90
46890;DHT22;32625;51.080;16.970;2023-07-20T05:11:12;16.80;99.90
46890;DHT22;32625;51.080;16.970;2023-07-20T05:13:40;16.80;99.90
46890;DHT22;32625;51.080;16.970;2023-07-20T05:16:07;16.80;99.90
46890;DHT22;32625;51.080;16.970;2023-07-20T05:18:35;16.90;99.90
46890;DHT22;32625;51.080;16.970;2023-07-20T05:21:03;16.90;99.90
46890;DHT22;32625;51.080;16.970;2023-07-20T05:23:30;16.90;99.90
46890;DHT22;32625;51.080;16.970;2023-07-20T05:25:59;16.90;99.90
46890;DHT22;32625;51.080;16.970;2023-07-20T05:28:26;16.90;99.90
46890;DHT22;32625;51.080;16.970;2023-07-20T05:30:54;16.90;99.90
46890;DHT22;32625;51.080;16.970;2023-07-20T05:33:22;17.00;99.90
46890;DHT22;32625;51.080;16.970;2023-07-20T05:35:49;17.00;99.90
46890;DHT22;32625;51.080;16.970;2023-07-20T05:38:16;17.00;99.90
46890;DHT22;32625;51.080;16.970;2023-07-20T05:40:44;17.00;99.90
46890;DHT22;32625;51.080;16.970;2023-07-20T05:43:11;17.00;99.90
46890;DHT22;32625;51.080;16.970;2023-07-20T05:45:42;17.00;99.90
46890;DHT22;32625;51.080;16.970;2023-07-20T05:48:09;17.00;99.90
46890;DHT22;32625;51.080;16.970;2023-07-20T05:50:42;17.00;99.90
46890;DHT22;32625;51.080;16.970;2023-07-20T05:53:10;17.00;99.90
46890;DHT22;32625;51.080;16.970;2023-07-20T05:55:37;17.00;99.90
46890;DHT22;32625;51.080;16.970;2023-07-20T05:58:06;17.00;99.90
46890;DHT22;32625;51.080;16.970;2023-07-20T06:00:33;17.00;99.90
46890;DHT22;32625;51.080;16.970;2023-07-20T06:03:01;17.10;99.90
46890;DHT22;32625;51.080;16.970;2023-07-20T06:05:29;17.10;99.90
46890;DHT22;32625;51.080;16.970;2023-07-20T06:07:57;17.20;99.90
46890;DHT22;32625;51.080;16.970;2023-07-20T06:10:25;17.20;99.90
46890;DHT22;32625;51.080;16.970;2023-07-20T06:12:53;17.30;99.90
46890;DHT22;32625;51.080;16.970;2023-07-20T06:15:32;17.50;99.90
46890;DHT22;32625;51.080;16.970;2023-07-20T06:18:01;17.60;99.90
46890;DHT22;32625;51.080;16.970;2023-07-20T06:20:29;17.70;99.90
46890;DHT22;32625;51.080;16.970;2023-07-20T06:22:56;17.70;99.90
46890;DHT22;32625;51.080;16.970;2023-07-20T06:25:23;17.60;99.90
46890;DHT22;32625;51.080;16.970;2023-07-20T06:27:51;17.70;99.90
46890;DHT22;32625;51.080;16.970;2023-07-20T06:30:18;17.80;99.90
46890;DHT22;32625;51.080;16.970;2023-07-20T06:32:46;17.70;99.90
46890;DHT22;32625;51.080;16.970;2023-07-20T06:35:14;17.70;99.90
46890;DHT22;32625;51.080;16.970;2023-07-20T06:37:41;17.90;99.90
46890;DHT22;32625;51.080;16.970;2023-07-20T06:40:09;18.00;99.90
46890;DHT22;32625;51.080;16.970;2023-07-20T06:42:39;17.90;99.90
46890;DHT22;32625;51.080;16.970;2023-07-20T06:45:09;17.90;99.90
46890;DHT22;32625;51.080;16.970;2023-07-20T06:47:39;17.90;99.90
46890;DHT22;32625;51.080;16.970;2023-07-20T06:50:07;17.80;99.90
46890;DHT22;32625;51.080;16.970;2023-07-20T06:52:35;17.70;99.90
46890;DHT22;32625;51.080;16.970;2023-07-20T06:55:02;17.70;99.90
46890;DHT22;32625;51.080;16.970;2023-07-20T06:57:32;17.70;99.90
46890;DHT22;32625;51.080;16.970;2023-07-20T06:59:59;17.90;99.90
46890;DHT22;32625;51.080;16.970;2023-07-20T07:02:27;18.00;99.90
46890;DHT22;32625;51.080;16.970;2023-07-20T07:04:54;18.00;99.90
46890;DHT22;32625;51.080;16.970;2023-07-20T07:07:26;18.10;99.90
46890;DHT22;32625;51.080;16.970;2023-07-20T07:09:53;18.20;99.90
46890;DHT22;32625;51.080;16.970;2023-07-20T07:12:21;18.30;99.90
46890;DHT22;32625;51.080;16.970;2023-07-20T07:14:48;18.40;99.90
46890;DHT22;32625;51.080;16.970;2023-07-20T07:17:15;18.50;99.90
46890;DHT22;32625;51.080;16.970;2023-07-20T07:19:46;18.60;99.90
46890;DHT22;32625;51.080;16.970;2023-07-20T07:22:15;18.50;99.90
46890;DHT22;32625;51.080;16.970;2023-07-20T07:24:43;18.40;99.90
46890;DHT22;32625;51.080;16.970;2023-07-20T07:27:10;18.40;99.90
46890;DHT22;32625;51.080;16.970;2023-07-20T07:29:38;18.50;99.90
46890;DHT22;32625;51.080;16.970;2023-07-20T07:32:05;18.70;99.90
46890;DHT22;32625;51.080;16.970;2023-07-20T07:34:33;18.70;99.90
46890;DHT22;32625;51.080;16.970;2023-07-20T07:37:01;18.70;99.90
46890;DHT22;32625;51.080;16.970;2023-07-20T07:39:29;18.70;99.90
46890;DHT22;32625;51.080;16.970;2023-07-20T07:41:59;18.80;99.90
46890;DHT22;32625;51.080;16.970;2023-07-20T07:44:27;18.80;99.90
46890;DHT22;32625;51.080;16.970;2023-07-20T07:46:54;18.70;99.90
46890;DHT22;32625;51.080;16.970;2023-07-20T07:49:21;18.70;99.90
46890;DHT22;32625;51.080;16.970;2023-07-20T07:51:48;18.60;99.90
46890;DHT22;32625;51.080;16.970;2023-07-20T07:54:16;18.70;99.90
46890;DHT22;32625;51.080;16.970;2023-07-20T07:56:43;18.90;99.90
46890;DHT22;32625;51.080;16.970;2023-07-20T07:59:11;18.90;99.90
46890;DHT22;32625;51.080;16.970;2023-07-20T08:01:38;18.80;99.90
46890;DHT22;32625;51.080;16.970;2023-07-20T08:04:06;18.70;99.90
46890;DHT22;32625;51.080;16.970;2023-07-20T08:06:33;18.80;99.90
46890;DHT22;32625;51.080;16.970;2023-07-20T08:09:00;18.90;99.90
46890;DHT22;32625;51.080;16.970;2023-07-20T08:11:29;19.10;99.90
46890;DHT22;32625;51.080;16.970;2023-07-20T08:13:57;19.20;99.90
46890;DHT22;32625;51.080;16.970;2023-07-20T08:16:24;19.20;99.90
46890;DHT22;32625;51.080;16.970;2023-07-20T08:18:52;19.20;99.90
46890;DHT22;32625;51.080;16.970;2023-07-20T08:21:20;19.20;99.90
46890;DHT22;32625;51.080;16.970;2023-07-20T08:23:47;19.30;99.90
46890;DHT22;32625;51.080;16.970;2023-07-20T08:26:14;19.30;99.90
46890;DHT22;32625;51.080;16.970;2023-07-20T08:28:44;19.30;99.90
46890;DHT22;32625;51.080;16.970;2023-07-20T08:31:11;19.20;99.90
46890;DHT22;32625;51.080;16.970;2023-07-20T08:33:38;19.10;99.90
46890;DHT22;32625;51.080;16.970;2023-07-20T08:36:05;19.00;99.90
46890;DHT22;32625;51.080;16.970;2023-07-20T08:38:38;18.90;99.90
46890;DHT22;32625;51.080;16.970;2023-07-20T08:41:05;19.00;99.90
46890;DHT22;32625;51.080;16.970;2023-07-20T08:43:33;19.30;99.90
46890;DHT22;32625;51.080;16.970;2023-07-20T08:46:00;19.50;99.90
46890;DHT22;32625;51.080;16.970;2023-07-20T08:48:30;19.60;99.90
46890;DHT22;32625;51.080;16.970;2023-07-20T08:50:58;19.80;99.90
46890;DHT22;32625;51.080;16.970;2023-07-20T08:53:28;19.90;99.90
46890;DHT22;32625;51.080;16.970;2023-07-20T08:55:56;20.10;99.90
46890;DHT22;32625;51.080;16.970;2023-07-20T08:58:25;20.00;99.90
46890;DHT22;32625;51.080;16.970;2023-07-20T09:00:54;20.00;99.90
46890;DHT22;32625;51.080;16.970;2023-07-20T09:03:22;20.10;99.90
46890;DHT22;32625;51.080;16.970;2023-07-20T09:05:49;20.30;99.90
46890;DHT22;32625;51.080;16.970;2023-07-20T09:08:17;20.50;99.90
46890;DHT22;32625;51.080;16.970;2023-07-20T09:10:44;20.60;99.90
46890;DHT22;32625;51.080;16.970;2023-07-20T09:13:15;20.40;99.90
46890;DHT22;32625;51.080;16.970;2023-07-20T09:15:46;20.00;99.90
46890;DHT22;32625;51.080;16.970;2023-07-20T09:18:24;19.60;99.90
46890;DHT22;32625;51.080;16.970;2023-07-20T09:20:52;19.40;99.90
46890;DHT22;32625;51.080;16.970;2023-07-20T09:23:19;19.20;99.90
46890;DHT22;32625;51.080;16.970;2023-07-20T09:25:48;19.20;99.90
46890;DHT22;32625;51.080;16.970;2023-07-20T09:28:17;19.30;99.90
46890;DHT22;32625;51.080;16.970;2023-07-20T09:30:45;19.50;99.90
46890;DHT22;32625;51.080;16.970;2023-07-20T09:33:22;19.60;99.90
46890;DHT22;32625;51.080;16.970;2023-07-20T09:35:52;19.70;99.90
46890;DHT22;32625;51.080;16.970;2023-07-20T09:38:22;19.80;99.90
46890;DHT22;32625;51.080;16.970;2023-07-20T09:40:51;20.00;99.90
46890;DHT22;32625;51.080;16.970;2023-07-20T09:43:23;20.20;99.90
46890;DHT22;32625;51.080;16.970;2023-07-20T09:45:58;20.30;99.90
46890;DHT22;32625;51.080;16.970;2023-07-20T09:48:25;20.30;99.90
46890;DHT22;32625;51.080;16.970;2023-07-20T09:50:56;20.30;99.90
46890;DHT22;32625;51.080;16.970;2023-07-20T09:53:25;20.40;99.90
46890;DHT22;32625;51.080;16.970;2023-07-20T09:55:53;20.50;99.90
46890;DHT22;32625;51.080;16.970;2023-07-20T09:58:21;20.60;99.90
46890;DHT22;32625;51.080;16.970;2023-07-20T10:00:51;20.70;99.90
46890;DHT22;32625;51.080;16.970;2023-07-20T10:03:22;20.70;99.40
46890;DHT22;32625;51.080;16.970;2023-07-20T10:05:56;20.80;98.10
46890;DHT22;32625;51.080;16.970;2023-07-20T10:08:26;21.00;97.40
46890;DHT22;32625;51.080;16.970;2023-07-20T10:11:00;21.20;97.00
46890;DHT22;32625;51.080;16.970;2023-07-20T10:13:30;21.30;96.30
46890;DHT22;32625;51.080;16.970;2023-07-20T10:16:03;21.40;96.00
46890;DHT22;32625;51.080;16.970;2023-07-20T10:21:20;21.50;95.60
46890;DHT22;32625;51.080;16.970;2023-07-20T10:23:53;21.40;95.60
46890;DHT22;32625;51.080;16.970;2023-07-20T10:26:21;21.30;94.40
46890;DHT22;32625;51.080;16.970;2023-07-20T10:28:50;21.30;93.50
46890;DHT22;32625;51.080;16.970;2023-07-20T10:31:17;21.40;93.40
46890;DHT22;32625;51.080;16.970;2023-07-20T10:33:45;21.60;92.60
46890;DHT22;32625;51.080;16.970;2023-07-20T10:36:13;21.70;91.60
46890;DHT22;32625;51.080;16.970;2023-07-20T10:38:52;21.80;90.90
46890;DHT22;32625;51.080;16.970;2023-07-20T10:41:42;21.90;90.90
46890;DHT22;32625;51.080;16.970;2023-07-20T10:44:09;21.90;90.30
46890;DHT22;32625;51.080;16.970;2023-07-20T10:46:43;21.70;90.20
46890;DHT22;32625;51.080;16.970;2023-07-20T10:49:12;21.70;90.30
46890;DHT22;32625;51.080;16.970;2023-07-20T10:51:47;21.70;89.60
46890;DHT22;32625;51.080;16.970;2023-07-20T10:56:47;21.90;89.00
46890;DHT22;32625;51.080;16.970;2023-07-20T11:01:57;21.70;90.90
46890;DHT22;32625;51.080;16.970;2023-07-20T11:04:44;21.90;89.10
46890;DHT22;32625;51.080;16.970;2023-07-20T11:07:16;22.10;88.50
46890;DHT22;32625;51.080;16.970;2023-07-20T11:09:43;22.20;89.20
46890;DHT22;32625;51.080;16.970;2023-07-20T11:12:18;22.40;87.00
46890;DHT22;32625;51.080;16.970;2023-07-20T11:14:56;22.50;85.20
46890;DHT22;32625;51.080;16.970;2023-07-20T11:17:33;22.80;84.80
46890;DHT22;32625;51.080;16.970;2023-07-20T11:20:01;22.80;82.60
46890;DHT22;32625;51.080;16.970;2023-07-20T11:22:32;22.60;82.70
46890;DHT22;32625;51.080;16.970;2023-07-20T11:25:01;22.70;83.90
46890;DHT22;32625;51.080;16.970;2023-07-20T11:27:28;22.70;82.60
46890;DHT22;32625;51.080;16.970;2023-07-20T11:29:56;22.60;83.30
46890;DHT22;32625;51.080;16.970;2023-07-20T11:32:24;22.50;85.10
46890;DHT22;32625;51.080;16.970;2023-07-20T11:34:51;22.30;88.10
46890;DHT22;32625;51.080;16.970;2023-07-20T11:37:19;22.00;90.40
46890;DHT22;32625;51.080;16.970;2023-07-20T11:39:46;21.60;91.80
46890;DHT22;32625;51.080;16.970;2023-07-20T11:42:15;21.30;93.60
46890;DHT22;32625;51.080;16.970;2023-07-20T11:44:45;21.00;95.30
46890;DHT22;32625;51.080;16.970;2023-07-20T11:47:12;20.60;99.90
46890;DHT22;32625;51.080;16.970;2023-07-20T11:49:41;20.10;99.90
46890;DHT22;32625;51.080;16.970;2023-07-20T11:52:12;19.80;99.90
46890;DHT22;32625;51.080;16.970;2023-07-20T11:54:41;19.60;99.90
46890;DHT22;32625;51.080;16.970;2023-07-20T11:57:20;19.50;99.90
46890;DHT22;32625;51.080;16.970;2023-07-20T12:00:02;19.30;99.90
46890;DHT22;32625;51.080;16.970;2023-07-20T12:02:38;19.30;99.90
46890;DHT22;32625;51.080;16.970;2023-07-20T12:05:07;19.30;99.90
46890;DHT22;32625;51.080;16.970;2023-07-20T12:07:36;19.20;99.90
46890;DHT22;32625;51.080;16.970;2023-07-20T12:10:27;19.20;99.90
46890;DHT22;32625;51.080;16.970;2023-07-20T12:13:01;19.30;99.90
46890;DHT22;32625;51.080;16.970;2023-07-20T12:15:30;19.50;99.90
46890;DHT22;32625;51.080;16.970;2023-07-20T12:18:00;19.70;99.90
46890;DHT22;32625;51.080;16.970;2023-07-20T12:23:18;20.20;99.90
46890;DHT22;32625;51.080;16.970;2023-07-20T12:25:46;20.40;99.90
46890;DHT22;32625;51.080;16.970;2023-07-20T12:28:15;20.20;99.90
46890;DHT22;32625;51.080;16.970;2023-07-20T12:30:44;20.30;99.90
46890;DHT22;32625;51.080;16.970;2023-07-20T12:33:12;20.50;99.90
46890;DHT22;32625;51.080;16.970;2023-07-20T12:35:43;20.80;99.90
46890;DHT22;32625;51.080;16.970;2023-07-20T12:38:10;21.00;99.90
46890;DHT22;32625;51.080;16.970;2023-07-20T12:40:37;21.30;99.90
46890;DHT22;32625;51.080;16.970;2023-07-20T12:43:04;21.20;99.90
46890;DHT22;32625;51.080;16.970;2023-07-20T12:45:32;21.30;99.90
46890;DHT22;32625;51.080;16.970;2023-07-20T12:47:59;21.20;99.90
46890;DHT22;32625;51.080;16.970;2023-07-20T12:50:27;21.30;99.90
46890;DHT22;32625;51.080;16.970;2023-07-20T12:52:54;21.40;99.90
46890;DHT22;32625;51.080;16.970;2023-07-20T12:55:21;21.40;99.90
46890;DHT22;32625;51.080;16.970;2023-07-20T12:57:49;21.30;99.90
46890;DHT22;32625;51.080;16.970;2023-07-20T13:00:16;21.00;99.90
46890;DHT22;32625;51.080;16.970;2023-07-20T13:02:44;21.10;99.90
46890;DHT22;32625;51.080;16.970;2023-07-20T13:05:11;21.40;99.40
46890;DHT22;32625;51.080;16.970;2023-07-20T13:07:39;21.60;98.90
46890;DHT22;32625;51.080;16.970;2023-07-20T13:10:10;21.70;97.40
46890;DHT22;32625;51.080;16.970;2023-07-20T13:12:38;21.60;96.50
46890;DHT22;32625;51.080;16.970;2023-07-20T13:15:07;21.60;96.70
46890;DHT22;32625;51.080;16.970;2023-07-20T13:17:36;21.60;97.70
46890;DHT22;32625;51.080;16.970;2023-07-20T13:20:04;21.70;97.30
46890;DHT22;32625;51.080;16.970;2023-07-20T13:22:33;21.90;95.80
46890;DHT22;32625;51.080;16.970;2023-07-20T13:25:01;22.10;94.30
46890;DHT22;32625;51.080;16.970;2023-07-20T13:27:28;22.30;93.50
46890;DHT22;32625;51.080;16.970;2023-07-20T13:29:55;22.30;93.20
46890;DHT22;32625;51.080;16.970;2023-07-20T13:32:24;22.10;93.50
46890;DHT22;32625;51.080;16.970;2023-07-20T13:34:51;22.20;93.50
46890;DHT22;32625;51.080;16.970;2023-07-20T13:37:18;22.30;92.00
46890;DHT22;32625;51.080;16.970;2023-07-20T13:39:48;22.40;91.50
46890;DHT22;32625;51.080;16.970;2023-07-20T13:42:15;22.60;90.50
46890;DHT22;32625;51.080;16.970;2023-07-20T13:44:45;22.80;91.10
46890;DHT22;32625;51.080;16.970;2023-07-20T13:47:13;22.80;89.00
46890;DHT22;32625;51.080;16.970;2023-07-20T13:49:44;23.00;88.80
46890;DHT22;32625;51.080;16.970;2023-07-20T13:52:14;23.30;85.20
46890;DHT22;32625;51.080;16.970;2023-07-20T13:54:45;23.20;82.70
46890;DHT22;32625;51.080;16.970;2023-07-20T13:57:16;23.20;82.20
46890;DHT22;32625;51.080;16.970;2023-07-20T13:59:44;23.20;82.90
46890;DHT22;32625;51.080;16.970;2023-07-20T14:02:14;23.30;79.90
46890;DHT22;32625;51.080;16.970;2023-07-20T14:04:45;23.40;79.40
46890;DHT22;32625;51.080;16.970;2023-07-20T14:07:12;23.40;78.20
46890;DHT22;32625;51.080;16.970;2023-07-20T14:09:43;23.30;74.80
46890;DHT22;32625;51.080;16.970;2023-07-20T14:12:13;23.20;75.80
46890;DHT22;32625;51.080;16.970;2023-07-20T14:14:44;23.20;76.60
46890;DHT22;32625;51.080;16.970;2023-07-20T14:17:12;23.40;77.80
46890;DHT22;32625;51.080;16.970;2023-07-20T14:19:39;23.30;76.70
46890;DHT22;32625;51.080;16.970;2023-07-20T14:22:09;23.40;73.60
46890;DHT22;32625;51.080;16.970;2023-07-20T14:24:38;23.30;73.80
46890;DHT22;32625;51.080;16.970;2023-07-20T14:27:06;23.30;74.00
46890;DHT22;32625;51.080;16.970;2023-07-20T14:29:33;23.30;74.90
46890;DHT22;32625;51.080;16.970;2023-07-20T14:32:03;23.40;74.80
46890;DHT22;32625;51.080;16.970;2023-07-20T14:34:33;23.30;74.70
46890;DHT22;32625;51.080;16.970;2023-07-20T14:37:05;23.30;74.60
46890;DHT22;32625;51.080;16.970;2023-07-20T14:39:32;23.40;75.30
46890;DHT22;32625;51.080;16.970;2023-07-20T14:42:00;23.40;74.60
46890;DHT22;32625;51.080;16.970;2023-07-20T14:44:27;23.40;75.40
46890;DHT22;32625;51.080;16.970;2023-07-20T14:46:54;23.40;76.10
46890;DHT22;32625;51.080;16.970;2023-07-20T14:49:39;23.40;75.50
46890;DHT22;32625;51.080;16.970;2023-07-20T14:52:07;23.50;74.40
46890;DHT22;32625;51.080;16.970;2023-07-20T14:54:37;23.40;73.80
46890;DHT22;32625;51.080;16.970;2023-07-20T14:57:04;23.40;73.00
46890;DHT22;32625;51.080;16.970;2023-07-20T14:59:31;23.40;72.20
46890;DHT22;32625;51.080;16.970;2023-07-20T15:01:58;23.40;71.70
46890;DHT22;32625;51.080;16.970;2023-07-20T15:04:26;23.60;71.80
46890;DHT22;32625;51.080;16.970;2023-07-20T15:06:54;23.60;72.30
46890;DHT22;32625;51.080;16.970;2023-07-20T15:09:21;23.50;71.70
46890;DHT22;32625;51.080;16.970;2023-07-20T15:11:49;23.50;71.50
46890;DHT22;32625;51.080;16.970;2023-07-20T15:14:16;23.60;70.80
46890;DHT22;32625;51.080;16.970;2023-07-20T15:16:44;23.60;71.20
46890;DHT22;32625;51.080;16.970;2023-07-20T15:19:15;23.70;72.60
46890;DHT22;32625;51.080;16.970;2023-07-20T15:21:43;23.80;71.70
46890;DHT22;32625;51.080;16.970;2023-07-20T15:24:10;23.70;73.30
46890;DHT22;32625;51.080;16.970;2023-07-20T15:26:38;23.60;74.80
46890;DHT22;32625;51.080;16.970;2023-07-20T15:29:06;23.40;76.70
46890;DHT22;32625;51.080;16.970;2023-07-20T15:31:33;23.20;75.60
46890;DHT22;32625;51.080;16.970;2023-07-20T15:34:03;23.10;77.00
46890;DHT22;32625;51.080;16.970;2023-07-20T15:36:30;23.00;76.80
46890;DHT22;32625;51.080;16.970;2023-07-20T15:38:58;23.00;76.40
46890;DHT22;32625;51.080;16.970;2023-07-20T15:41:25;23.00;75.10
46890;DHT22;32625;51.080;16.970;2023-07-20T15:43:53;23.00;74.60
46890;DHT22;32625;51.080;16.970;2023-07-20T15:48:48;23.10;75.50
46890;DHT22;32625;51.080;16.970;2023-07-20T15:51:15;23.10;75.20
46890;DHT22;32625;51.080;16.970;2023-07-20T15:53:42;23.10;75.90
46890;DHT22;32625;51.080;16.970;2023-07-20T15:56:09;23.00;76.00